sensor_id;sensor_type;location;lat;lon;timestamp;pressure;altitude;pressure_sealevel;temperature;humidity
22862;BME280;11598;50.652;6.172;2023-04-07T00:09:53;96244.19;;;5.74;100.00
22862;BME280;11598;50.652;6.172;2023-04-07T00:19:53;96247.78;;;5.71;100.00
22862;BME280;11598;50.652;6.172;2023-04-07T00:29:54;96254.78;;;5.69;100.00
22862;BME280;11598;50.652;6.172;2023-04-07T00:39:54;96248.03;;;5.67;100.00
22862;BME280;11598;50.652;6.172;2023-04-07T00:49:56;96251.59;;;5.64;100.00
22862;BME280;11598;50.652;6.172;2023-04-07T00:59:56;96243.16;;;5.62;100.00
22862;BME280;11598;50.652;6.172;2023-04-07T01:10:01;96241.47;;;5.61;100.00
22862;BME280;11598;50.652;6.172;2023-04-07T01:20:03;96233.00;;;5.59;100.00
22862;BME280;11598;50.652;6.172;2023-04-07T01:30:10;96233.13;;;5.58;100.00
22862;BME280;11598;50.652;6.172;2023-04-07T01:40:12;96241.59;;;5.60;100.00
22862;BME280;11598;50.652;6.172;2023-04-07T01:50:12;96244.16;;;5.60;100.00
22862;BME280;11598;50.652;6.172;2023-04-07T02:00:13;96233.00;;;5.59;100.00
22862;BME280;11598;50.652;6.172;2023-04-07T02:10:15;96236.31;;;5.61;100.00
22862;BME280;11598;50.652;6.172;2023-04-07T02:20:16;96240.00;;;5.57;100.00
22862;BME280;11598;50.652;6.172;2023-04-07T02:30:18;96249.84;;;5.50;100.00
22862;BME280;11598;50.652;6.172;2023-04-07T02:40:18;96245.78;;;5.46;100.00
22862;BME280;11598;50.652;6.172;2023-04-07T02:50:19;96238.31;;;5.42;100.00
22862;BME280;11598;50.652;6.172;2023-04-07T03:00:19;96251.38;;;5.39;100.00
22862;BME280;11598;50.652;6.172;2023-04-07T03:10:20;96258.44;;;5.35;100.00
22862;BME280;11598;50.652;6.172;2023-04-07T03:20:20;96256.78;;;5.34;100.00
22862;BME280;11598;50.652;6.172;2023-04-07T03:30:22;96252.72;;;5.30;100.00
22862;BME280;11598;50.652;6.172;2023-04-07T03:40:22;96252.81;;;5.28;100.00
22862;BME280;11598;50.652;6.172;2023-04-07T03:50:22;96245.06;;;5.28;100.00
22862;BME280;11598;50.652;6.172;2023-04-07T04:00:23;96254.88;;;5.22;100.00
22862;BME280;11598;50.652;6.172;2023-04-07T04:10:23;96249.75;;;5.22;100.00
22862;BME280;11598;50.652;6.172;2023-04-07T04:20:24;96250.00;;;5.17;100.00
22862;BME280;11598;50.652;6.172;2023-04-07T04:30:24;96254.31;;;5.17;100.00
22862;BME280;11598;50.652;6.172;2023-04-07T04:40:25;96267.13;;;5.18;100.00
22862;BME280;11598;50.652;6.172;2023-04-07T04:50:25;96270.84;;;5.13;100.00
22862;BME280;11598;50.652;6.172;2023-04-07T05:00:26;96273.34;;;5.14;100.00
22862;BME280;11598;50.652;6.172;2023-04-07T05:10:26;96284.31;;;5.18;100.00
22862;BME280;11598;50.652;6.172;2023-04-07T05:20:26;96294.78;;;5.15;100.00
22862;BME280;11598;50.652;6.172;2023-04-07T05:30:27;96300.28;;;5.08;100.00
22862;BME280;11598;50.652;6.172;2023-04-07T05:40:28;96298.97;;;5.01;100.00
22862;BME280;11598;50.652;6.172;2023-04-07T05:50:29;96301.63;;;5.00;100.00
22862;BME280;11598;50.652;6.172;2023-04-07T06:00:30;96315.56;;;4.96;100.00
22862;BME280;11598;50.652;6.172;2023-04-07T06:10:30;96319.94;;;4.94;100.00
22862;BME280;11598;50.652;6.172;2023-04-07T06:20:31;96334.75;;;4.90;100.00
22862;BME280;11598;50.652;6.172;2023-04-07T06:30:31;96334.16;;;4.85;100.00
22862;BME280;11598;50.652;6.172;2023-04-07T06:40:32;96349.84;;;4.80;100.00
22862;BME280;11598;50.652;6.172;2023-04-07T06:50:32;96367.19;;;4.77;100.00
22862;BME280;11598;50.652;6.172;2023-04-07T07:00:32;96381.50;;;4.82;100.00
22862;BME280;11598;50.652;6.172;2023-04-07T07:10:33;96385.72;;;4.83;100.00
22862;BME280;11598;50.652;6.172;2023-04-07T07:20:33;96400.94;;;4.88;100.00
22862;BME280;11598;50.652;6.172;2023-04-07T07:30:34;96404.09;;;4.93;100.00
22862;BME280;11598;50.652;6.172;2023-04-07T07:40:34;96418.41;;;5.15;100.00
22862;BME280;11598;50.652;6.172;2023-04-07T07:50:35;96417.81;;;5.25;100.00
22862;BME280;11598;50.652;6.172;2023-04-07T08:00:35;96420.72;;;5.19;100.00
22862;BME280;11598;50.652;6.172;2023-04-07T08:10:36;96426.97;;;5.15;100.00
22862;BME280;11598;50.652;6.172;2023-04-07T08:20:36;96431.47;;;5.43;100.00
22862;BME280;11598;50.652;6.172;2023-04-07T08:30:36;96436.84;;;5.55;100.00
22862;BME280;11598;50.652;6.172;2023-04-07T08:40:37;96440.19;;;5.57;100.00
22862;BME280;11598;50.652;6.172;2023-04-07T08:50:38;96446.59;;;5.65;100.00
22862;BME280;11598;50.652;6.172;2023-04-07T09:00:39;96455.38;;;5.61;100.00
22862;BME280;11598;50.652;6.172;2023-04-07T09:10:41;96463.94;;;5.78;100.00
22862;BME280;11598;50.652;6.172;2023-04-07T09:30:54;96482.59;;;5.99;100.00
22862;BME280;11598;50.652;6.172;2023-04-07T09:41:04;96467.22;;;6.72;100.00
22862;BME280;11598;50.652;6.172;2023-04-07T09:51:09;96468.06;;;7.30;100.00
22862;BME280;11598;50.652;6.172;2023-04-07T10:01:11;96473.72;;;7.36;100.00
22862;BME280;11598;50.652;6.172;2023-04-07T10:11:11;96476.28;;;6.93;100.00
22862;BME280;11598;50.652;6.172;2023-04-07T10:21:12;96475.53;;;6.91;100.00
22862;BME280;11598;50.652;6.172;2023-04-07T10:31:15;96491.38;;;6.56;100.00
22862;BME280;11598;50.652;6.172;2023-04-07T10:51:38;96508.22;;;6.32;100.00
22862;BME280;11598;50.652;6.172;2023-04-07T11:01:39;96505.09;;;6.27;100.00
22862;BME280;11598;50.652;6.172;2023-04-07T11:11:40;96522.50;;;6.53;100.00
22862;BME280;11598;50.652;6.172;2023-04-07T11:21:41;96525.13;;;6.38;100.00
22862;BME280;11598;50.652;6.172;2023-04-07T11:31:46;96532.03;;;6.37;100.00
22862;BME280;11598;50.652;6.172;2023-04-07T11:41:48;96530.38;;;7.11;100.00
22862;BME280;11598;50.652;6.172;2023-04-07T11:51:57;96539.06;;;7.38;100.00
22862;BME280;11598;50.652;6.172;2023-04-07T12:01:58;96546.63;;;7.56;100.00
22862;BME280;11598;50.652;6.172;2023-04-07T12:11:59;96553.28;;;7.46;100.00
22862;BME280;11598;50.652;6.172;2023-04-07T12:21:59;96557.13;;;7.24;100.00
22862;BME280;11598;50.652;6.172;2023-04-07T12:31:59;96559.41;;;7.14;100.00
22862;BME280;11598;50.652;6.172;2023-04-07T12:42:00;96566.56;;;7.39;100.00
22862;BME280;11598;50.652;6.172;2023-04-07T12:52:00;96569.50;;;7.33;100.00
22862;BME280;11598;50.652;6.172;2023-04-07T13:02:01;96560.09;;;7.61;100.00
22862;BME280;11598;50.652;6.172;2023-04-07T13:12:01;96577.28;;;7.76;100.00
22862;BME280;11598;50.652;6.172;2023-04-07T13:22:02;96571.25;;;7.61;100.00
22862;BME280;11598;50.652;6.172;2023-04-07T13:32:06;96582.81;;;7.41;100.00
22862;BME280;11598;50.652;6.172;2023-04-07T13:42:06;96585.31;;;7.57;100.00
22862;BME280;11598;50.652;6.172;2023-04-07T13:52:08;96580.78;;;7.47;100.00
22862;BME280;11598;50.652;6.172;2023-04-07T14:02:09;96577.44;;;7.16;100.00
22862;BME280;11598;50.652;6.172;2023-04-07T14:12:09;96579.91;;;7.03;100.00
22862;BME280;11598;50.652;6.172;2023-04-07T14:22:09;96580.84;;;7.31;100.00
22862;BME280;11598;50.652;6.172;2023-04-07T14:32:10;96571.53;;;7.43;100.00
22862;BME280;11598;50.652;6.172;2023-04-07T14:42:10;96574.50;;;7.36;100.00
22862;BME280;11598;50.652;6.172;2023-04-07T14:52:10;96572.66;;;7.53;100.00
22862;BME280;11598;50.652;6.172;2023-04-07T15:02:12;96577.44;;;7.30;100.00
22862;BME280;11598;50.652;6.172;2023-04-07T15:12:13;96597.28;;;6.85;100.00
22862;BME280;11598;50.652;6.172;2023-04-07T15:22:13;96617.19;;;6.37;100.00
22862;BME280;11598;50.652;6.172;2023-04-07T15:32:13;96622.94;;;6.10;100.00
22862;BME280;11598;50.652;6.172;2023-04-07T15:42:14;96629.66;;;5.97;100.00
22862;BME280;11598;50.652;6.172;2023-04-07T15:52:14;96634.78;;;5.81;100.00
22862;BME280;11598;50.652;6.172;2023-04-07T16:02:15;96642.66;;;5.62;100.00
22862;BME280;11598;50.652;6.172;2023-04-07T16:12:15;96652.91;;;5.46;100.00
22862;BME280;11598;50.652;6.172;2023-04-07T16:22:17;96658.81;;;5.48;100.00
22862;BME280;11598;50.652;6.172;2023-04-07T16:32:17;96661.81;;;5.57;100.00
22862;BME280;11598;50.652;6.172;2023-04-07T16:42:18;96666.56;;;5.64;100.00
22862;BME280;11598;50.652;6.172;2023-04-07T16:52:19;96675.50;;;5.75;100.00
22862;BME280;11598;50.652;6.172;2023-04-07T17:02:19;96685.50;;;5.81;100.00
22862;BME280;11598;50.652;6.172;2023-04-07T17:12:20;96695.56;;;5.85;100.00
22862;BME280;11598;50.652;6.172;2023-04-07T17:22:21;96704.75;;;5.91;100.00
22862;BME280;11598;50.652;6.172;2023-04-07T17:32:22;96700.72;;;5.85;100.00
22862;BME280;11598;50.652;6.172;2023-04-07T17:42:22;96722.50;;;5.80;100.00
22862;BME280;11598;50.652;6.172;2023-04-07T17:52:22;96724.97;;;5.65;100.00
22862;BME280;11598;50.652;6.172;2023-04-07T18:02:23;96741.63;;;5.58;100.00
22862;BME280;11598;50.652;6.172;2023-04-07T18:12:23;96745.81;;;5.61;100.00
22862;BME280;11598;50.652;6.172;2023-04-07T18:22:25;96750.13;;;5.60;100.00
22862;BME280;11598;50.652;6.172;2023-04-07T18:32:25;96756.34;;;5.56;100.00
22862;BME280;11598;50.652;6.172;2023-04-07T18:42:27;96774.00;;;5.46;100.00
22862;BME280;11598;50.652;6.172;2023-04-07T18:52:27;96788.94;;;5.40;100.00
22862;BME280;11598;50.652;6.172;2023-04-07T19:02:28;96803.47;;;5.41;100.00
22862;BME280;11598;50.652;6.172;2023-04-07T19:12:28;96818.25;;;5.37;100.00
22862;BME280;11598;50.652;6.172;2023-04-07T19:22:28;96833.00;;;5.34;100.00
22862;BME280;11598;50.652;6.172;2023-04-07T19:32:29;96826.34;;;5.29;100.00
22862;BME280;11598;50.652;6.172;2023-04-07T19:42:30;96839.34;;;5.26;100.00
22862;BME280;11598;50.652;6.172;2023-04-07T19:52:31;96849.81;;;5.23;100.00
22862;BME280;11598;50.652;6.172;2023-04-07T20:02:32;96854.91;;;5.25;100.00
22862;BME280;11598;50.652;6.172;2023-04-07T20:12:32;96873.91;;;5.22;100.00
22862;BME280;11598;50.652;6.172;2023-04-07T20:22:33;96870.41;;;5.23;100.00
22862;BME280;11598;50.652;6.172;2023-04-07T20:32:33;96879.91;;;5.23;100.00
22862;BME280;11598;50.652;6.172;2023-04-07T20:42:34;96889.66;;;5.16;100.00
22862;BME280;11598;50.652;6.172;2023-04-07T20:52:34;96888.03;;;5.14;100.00
22862;BME280;11598;50.652;6.172;2023-04-07T21:02:39;96894.78;;;5.16;100.00
22862;BME280;11598;50.652;6.172;2023-04-07T21:12:39;96897.31;;;5.18;100.00
22862;BME280;11598;50.652;6.172;2023-04-07T21:22:40;96899.94;;;5.16;100.00
22862;BME280;11598;50.652;6.172;2023-04-07T21:32:44;96903.50;;;5.14;100.00
22862;BME280;11598;50.652;6.172;2023-04-07T21:42:44;96894.94;;;5.13;100.00
22862;BME280;11598;50.652;6.172;2023-04-07T21:52:45;96905.31;;;5.12;100.00
22862;BME280;11598;50.652;6.172;2023-04-07T22:02:49;96902.66;;;5.13;100.00
22862;BME280;11598;50.652;6.172;2023-04-07T22:12:50;96904.53;;;5.09;100.00
22862;BME280;11598;50.652;6.172;2023-04-07T22:22:50;96902.25;;;5.03;100.00
22862;BME280;11598;50.652;6.172;2023-04-07T22:32:53;96906.00;;;4.96;100.00
22862;BME280;11598;50.652;6.172;2023-04-07T22:42:53;96910.41;;;4.94;100.00
22862;BME280;11598;50.652;6.172;2023-04-07T22:52:53;96914.00;;;4.90;100.00
22862;BME280;11598;50.652;6.172;2023-04-07T23:02:54;96912.31;;;4.89;100.00
22862;BME280;11598;50.652;6.172;2023-04-07T23:12:54;96923.53;;;4.88;100.00
22862;BME280;11598;50.652;6.172;2023-04-07T23:22:54;96933.81;;;4.88;100.00
22862;BME280;11598;50.652;6.172;2023-04-07T23:32:55;96937.38;;;4.85;100.00
22862;BME280;11598;50.652;6.172;2023-04-07T23:42:55;96934.03;;;4.83;100.00
22862;BME280;11598;50.652;6.172;2023-04-07T23:52:56;96947.81;;;4.82;100.00
